Flight Track Log - Related Links

Times and Time Zones

All times are in EDT time to prevent confusion due to time zone crossing. See the SVA259 flight status page for this flight to view local times or setup timezone preferences in your user account.

Time Position Orientation Groundspeed Altitude Reporting Facility
EDT Latitude Longitude Course Direction KTS MPH feet Rate Location/Type
Mon 09:59:00 AM 24.7937 39.5742 334° Northwest  Level Estimated
Mon 10:00:00 AM 24.8738 39.5305 334° Northwest  Level Estimated
Mon 10:01:00 AM 24.9538 39.4867 334° Northwest  Level Estimated
Mon 10:02:00 AM 25.0338 39.4428 334° Northwest  Level Estimated
Mon 10:03:00 AM 25.1139 39.3989 334° Northwest  Level Estimated
Mon 10:04:00 AM 25.1939 39.3550 334° Northwest  Level Estimated
Mon 10:05:00 AM 25.2739 39.3109 334° Northwest  Level Estimated
Mon 10:06:00 AM 25.3539 39.2669 334° Northwest  Level Estimated
Mon 10:07:00 AM 25.4338 39.2227 334° Northwest  Level Estimated
Mon 10:08:00 AM 25.5138 39.1785 333° Northwest  Level Estimated
Mon 10:09:00 AM 25.5938 39.1343 333° Northwest  Level Estimated
Mon 10:10:00 AM 25.6737 39.0900 333° Northwest  Level Estimated
Mon 10:11:00 AM 25.7536 39.0456 333° Northwest  Level Estimated
Mon 10:12:00 AM 25.8335 39.0012 333° Northwest  Level Estimated
Mon 10:13:00 AM 25.9134 38.9567 333° Northwest  Level Estimated
Mon 10:14:00 AM 25.9933 38.9121 333° Northwest  Level Estimated
Mon 10:15:00 AM 26.0732 38.8675 333° Northwest  Level Estimated
Mon 10:16:00 AM 26.1530 38.8228 333° Northwest  Level Estimated
Mon 10:17:00 AM 26.2328 38.7781 333° Northwest  Level Estimated
Mon 10:18:00 AM 26.3127 38.7333 333° Northwest  Level Estimated
Mon 10:19:00 AM 26.3925 38.6884 333° Northwest  Level Estimated
Mon 10:20:00 AM 26.4723 38.6435 333° Northwest  Level Estimated
Mon 10:21:00 AM 26.5521 38.5985 333° Northwest  Level Estimated
Mon 10:22:00 AM 26.6318 38.5535 333° Northwest  Level Estimated
Mon 10:23:00 AM 26.7116 38.5084 333° Northwest  Level Estimated
Mon 10:24:00 AM 26.7913 38.4632 333° Northwest  Level Estimated
Mon 10:25:00 AM 26.8711 38.4180 333° Northwest  Level Estimated
Mon 10:26:00 AM 26.9508 38.3727 333° Northwest  Level Estimated
Mon 10:27:00 AM 27.0305 38.3273 333° Northwest  Level Estimated
Mon 10:28:00 AM 27.1101 38.2819 333° Northwest  Level Estimated
Mon 10:29:00 AM 27.1898 38.2364 333° Northwest  Level Estimated
Mon 10:30:00 AM 27.2695 38.1908 333° Northwest  Level Estimated
Mon 10:31:00 AM 27.3491 38.1452 333° Northwest  Level Estimated
Mon 10:32:00 AM 27.4287 38.0995 333° Northwest  Level Estimated
Mon 10:33:00 AM 27.5083 38.0538 333° Northwest  Level Estimated
Mon 10:34:00 AM 27.5879 38.0079 333° Northwest  Level Estimated
Mon 10:35:00 AM 27.6675 37.9621 333° Northwest  Level Estimated
Mon 10:36:00 AM 27.7471 37.9161 333° Northwest  Level Estimated
Mon 10:37:00 AM 27.8266 37.8701 333° Northwest  Level Estimated
Mon 10:38:00 AM 27.9062 37.8240 333° Northwest  Level Estimated
Mon 10:39:00 AM 27.9857 37.7778 333° Northwest  Level Estimated
Mon 10:40:00 AM 28.0652 37.7316 333° Northwest  Level Estimated
Mon 10:41:00 AM 28.1447 37.6853 333° Northwest  Level Estimated
Mon 10:42:00 AM 28.2241 37.6390 333° Northwest  Level Estimated
Mon 10:43:00 AM 28.3036 37.5925 333° Northwest  Level Estimated
Mon 10:44:00 AM 28.3830 37.5460 333° Northwest  Level Estimated
Mon 10:45:00 AM 28.4625 37.4995 333° Northwest  Level Estimated
Mon 10:46:00 AM 28.5419 37.4528 333° Northwest  Level Estimated
Mon 10:47:00 AM 28.6213 37.4061 333° Northwest  Level Estimated
Mon 10:48:00 AM 28.7006 37.3593 333° Northwest  Level Estimated
Mon 10:49:00 AM 28.7800 37.3125 333° Northwest  Level Estimated
Mon 10:50:00 AM 28.8593 37.2655 333° Northwest  Level Estimated
Mon 10:51:00 AM 28.9387 37.2186 333° Northwest  Level Estimated
Mon 10:52:00 AM 29.0180 37.1715 333° Northwest  Level Estimated
Mon 10:53:00 AM 29.0973 37.1244 333° Northwest  Level Estimated
Mon 10:54:00 AM 29.1765 37.0771 333° Northwest  Level Estimated
Mon 10:55:00 AM 29.2558 37.0299 333° Northwest  Level Estimated
Mon 10:56:00 AM 29.3351 36.9825 332° Northwest  Level Estimated
Mon 10:57:00 AM 29.4143 36.9351 332° Northwest  Level Estimated
Mon 10:58:00 AM 29.4935 36.8876 332° Northwest  Level Estimated
Mon 10:59:00 AM 29.5727 36.8400 332° Northwest  Level Estimated
Mon 11:00:00 AM 29.6519 36.7923 332° Northwest  Level Estimated
Mon 11:01:00 AM 29.7310 36.7446 332° Northwest  Level Estimated
Mon 11:02:00 AM 29.8102 36.6968 332° Northwest  Level Estimated
Mon 11:03:00 AM 29.8893 36.6489 332° Northwest  Level Estimated
Mon 11:04:00 AM 29.9684 36.6009 332° Northwest  Level Estimated
Mon 11:05:00 AM 30.0475 36.5529 332° Northwest  Level Estimated
Mon 11:06:00 AM 30.1266 36.5048 332° Northwest  Level Estimated
Mon 11:07:00 AM 30.2056 36.4566 332° Northwest  Level Estimated
Mon 11:08:00 AM 30.2847 36.4084 332° Northwest  Level Estimated
Mon 11:09:00 AM 30.3637 36.3600 332° Northwest  Level Estimated
Mon 11:10:00 AM 30.4427 36.3116 332° Northwest  Level Estimated
Mon 11:11:00 AM 30.5217 36.2631 332° Northwest  Level Estimated
Mon 11:12:00 AM 30.6007 36.2145 332° Northwest  Level Estimated
Mon 11:13:00 AM 30.6796 36.1659 332° Northwest  Level Estimated
Mon 11:14:00 AM 30.7585 36.1171 332° Northwest  Level Estimated
Mon 11:15:00 AM 30.8374 36.0683 332° Northwest  Level Estimated
Mon 11:16:00 AM 30.9163 36.0194 332° Northwest  Level Estimated
Mon 11:17:00 AM 30.9952 35.9704 332° Northwest  Level Estimated
Mon 11:18:00 AM 31.0741 35.9214 332° Northwest  Level Estimated
Mon 11:19:00 AM 31.1529 35.8722 332° Northwest  Level Estimated
Mon 11:20:00 AM 31.2317 35.8230 332° Northwest  Level Estimated
Mon 11:21:00 AM 31.3105 35.7737 332° Northwest  Level Estimated
Mon 11:22:00 AM 31.3893 35.7243 332° Northwest  Level Estimated
Mon 11:23:00 AM 31.4681 35.6748 332° Northwest  Level Estimated
Mon 11:24:00 AM 31.5468 35.6253 332° Northwest  Level Estimated
Mon 11:25:00 AM 31.6255 35.5756 332° Northwest  Level Estimated
Mon 11:26:00 AM 31.7043 35.5259 332° Northwest  Level Estimated
Mon 11:27:00 AM 31.7829 35.4761 332° Northwest  Level Estimated
Mon 11:28:00 AM 31.8616 35.4262 332° Northwest  Level Estimated
Mon 11:29:00 AM 31.9403 35.3763 332° Northwest  Level Estimated
Mon 11:30:00 AM 32.0189 35.3262 332° Northwest  Level Estimated
Mon 11:31:00 AM 32.0975 35.2760 332° Northwest  Level Estimated
Mon 11:32:00 AM 32.1761 35.2258 332° Northwest  Level Estimated
Mon 11:33:00 AM 32.2547 35.1755 332° Northwest  Level Estimated
Mon 11:34:00 AM 32.3332 35.1251 332° Northwest  Level Estimated
Mon 11:35:00 AM 32.4117 35.0746 332° Northwest  Level Estimated
Mon 11:36:00 AM 32.4902 35.0240 331° Northwest  Level Estimated
Mon 11:37:00 AM 32.5687 34.9733 331° Northwest  Level Estimated
Mon 11:38:00 AM 32.6472 34.9226 331° Northwest  Level Estimated
Mon 11:39:00 AM 32.7256 34.8717 331° Northwest  Level Estimated
Mon 11:40:00 AM 32.8041 34.8208 331° Northwest  Level Estimated
Mon 11:41:00 AM 32.8825 34.7697 331° Northwest  Level Estimated
Mon 11:41:13 AM 32.3225 31.0366 355° North 415 478 36,000  Level FlightAware ADS-B (LLHA / HFA)
Mon 11:41:43 AM 32.3795 31.0303 355° North 416 479 36,000  Level FlightAware ADS-B (LLHA / HFA)
Mon 11:41:54 AM 32.3972 31.0284 355° North 416 479 36,000  Level FlightAware ADS-B (LLHA / HFA)
Mon 11:43:43 AM 32.6032 31.0056 355° North 416 479 36,000 207 Level FlightAware ADS-B (LLHA / HFA)
Mon 11:49:08 AM 33.2322 30.9653 358° North 408 470 37,500 304 Climbing FlightAware ADS-B (LLHA / HFA)
Mon 11:49:38 AM 33.2908 30.9625 358° North 408 470 37,800 375 Climbing FlightAware ADS-B (LLHA / HFA)
Mon 11:50:28 AM 33.3823 30.9581 358° North 405 466 38,000 148 Climbing FlightAware ADS-B (LLHA / HFA)
Mon 11:50:59 AM 33.4401 30.9553 358° North 405 466 38,000  Level FlightAware ADS-B (LLHA / HFA)
Mon 11:51:28 AM 33.4966 30.9525 358° North 406 467 38,000  Level FlightAware ADS-B (LLHA / HFA)
Mon 11:51:59 AM 33.5539 30.9497 358° North 406 467 38,000  Level FlightAware ADS-B (LLHA / HFA)
Mon 11:52:17 AM 33.5847 30.9482 358° North 406 467 38,000  Level FlightAware ADS-B (LLHA / HFA)
Mon 11:53:43 AM 33.7519 30.9400 358° North 408 470 38,000  Level FlightAware ADS-B (LLHA / HFA)
Mon 11:54:13 AM 33.8070 30.9373 358° North 409 471 38,000  Level FlightAware ADS-B (LLHA / HFA)
Mon 11:54:43 AM 33.8648 30.9344 358° North 409 471 38,000  Level FlightAware ADS-B (LLHA / HFA)
Mon 11:55:14 AM 33.9223 30.9316 358° North 409 471 38,000  Level FlightAware ADS-B (LLHA / HFA)
Mon 11:55:43 AM 33.9767 30.9289 358° North 408 470 38,000  Level FlightAware ADS-B (LLHA / HFA)
Mon 11:56:13 AM 34.0340 30.9261 358° North 408 470 38,000  Level FlightAware ADS-B (LLHA / HFA)
Mon 11:56:43 AM 34.0909 30.9233 358° North 408 470 38,000  Level FlightAware ADS-B (LLHA / HFA)
Mon 11:57:13 AM 34.1489 30.9205 358° North 408 470 38,000  Level FlightAware ADS-B (LLHA / HFA)
Mon 11:57:44 AM 34.2061 30.9176 358° North 406 467 38,000  Level FlightAware ADS-B (LLHA / HFA)
Mon 11:58:13 AM 34.2603 30.9150 358° North 405 466 38,000  Level FlightAware ADS-B (LLHA / HFA)
Mon 11:58:44 AM 34.3181 30.9121 358° North 404 465 38,000  Level FlightAware ADS-B (LLHA / HFA)
Mon 11:59:12 AM 34.3690 30.9095 358° North 403 464 38,000  Level FlightAware ADS-B (LLHA / HFA)
Mon 12:00:13 PM 34.4859 30.9036 358° North 406 467 38,000  Level FlightAware ADS-B (LLHA / HFA)
Mon 12:00:43 PM 34.5368 30.9011 358° North 406 467 38,000  Level FlightAware ADS-B (LLHA / HFA)
Mon 12:01:13 PM 34.5968 30.8981 358° North 407 468 38,000  Level FlightAware ADS-B (LLHA / HFA)
Mon 12:01:35 PM 34.6381 30.8961 358° North 406 467 38,000  Level FlightAware ADS-B (LLHA / HFA)
Mon 12:02:05 PM 34.6955 30.8932 358° North 406 467 38,000  Level FlightAware ADS-B (LLHA / HFA)
Mon 12:02:44 PM 34.7676 30.8895 358° North 408 470 38,000  Level FlightAware ADS-B (LLHA / HFA)
Mon 12:03:13 PM 34.8246 30.8867 358° North 409 471 38,000  Level FlightAware ADS-B (LLHA / HFA)
Mon 12:04:13 PM 34.9389 30.8809 358° North 409 471 38,000 57 Level FlightAware ADS-B (LLHA / HFA)
Mon 12:04:58 PM 35.0230 30.8767 358° North 404 465 38,100 92 Climbing FlightAware ADS-B (LLHA / HFA)
Mon 12:05:18 PM 35.0578 30.8750 358° North 403 464 38,100 -85 Level FlightAware ADS-B (LLHA / HFA)
Mon 12:06:09 PM 35.1545 30.8701 358° North 401 461 38,000 -74 Descending FlightAware ADS-B (LLHA / HFA)
Mon 12:06:39 PM 35.2101 30.8673 358° North 402 463 38,000  Level FlightAware ADS-B (LLHA / HFA)
Mon 12:06:52 PM 35.2315 30.8661 358° North 402 463 38,000  Level FlightAware ADS-B (LLHA / HFA)
Mon 12:09:00 PM 35.4157 30.8055 345° North  Level Estimated
Mon 12:10:00 PM 35.5019 30.7770 345° North  Level Estimated
Mon 12:11:00 PM 35.5882 30.7484 345° North  Level Estimated
Mon 12:12:00 PM 35.6745 30.7198 345° North  Level Estimated
Mon 12:13:00 PM 35.7608 30.6911 345° North  Level Estimated
Mon 12:14:00 PM 35.8470 30.6623 345° North  Level Estimated
Mon 12:15:00 PM 35.9333 30.6335 345° North  Level Estimated
Mon 12:16:00 PM 36.0196 30.6046 345° North  Level Estimated
Mon 12:17:00 PM 36.1058 30.5756 345° North  Level Estimated
Mon 12:18:00 PM 36.1920 30.5466 345° North  Level Estimated
Mon 12:19:00 PM 36.2783 30.5175 345° North  Level Estimated
Mon 12:20:00 PM 36.3645 30.4884 345° North  Level Estimated
Mon 12:21:00 PM 36.4507 30.4592 345° North  Level Estimated
Mon 12:22:00 PM 36.5369 30.4299 345° North  Level Estimated
Mon 12:23:00 PM 36.6231 30.4006 345° North  Level Estimated
Mon 12:24:00 PM 36.7093 30.3712 345° North  Level Estimated
Mon 12:25:00 PM 36.7955 30.3417 345° North  Level Estimated
Mon 12:26:00 PM 36.8817 30.3121 345° North  Level Estimated
Mon 12:27:00 PM 36.9678 30.2825 345° North  Level Estimated
Mon 12:28:00 PM 37.0540 30.2529 345° North  Level Estimated
Mon 12:29:00 PM 37.1401 30.2231 345° North  Level Estimated
Mon 12:30:00 PM 37.2263 30.1933 345° North  Level Estimated
Mon 12:31:00 PM 37.3124 30.1634 345° North  Level Estimated
Mon 12:32:00 PM 37.3986 30.1335 345° North  Level Estimated
Mon 12:33:00 PM 37.4847 30.1035 345° North  Level Estimated
Mon 12:34:00 PM 37.5708 30.0734 345° North  Level Estimated
Mon 12:35:00 PM 37.6569 30.0432 345° North  Level Estimated
Mon 12:36:00 PM 37.7430 30.0130 344° North  Level Estimated
Mon 12:37:00 PM 37.8291 29.9827 344° North  Level Estimated
Mon 12:38:00 PM 37.9152 29.9524 344° North  Level Estimated
Mon 12:39:00 PM 38.0013 29.9219 344° North  Level Estimated
Mon 12:40:00 PM 38.0874 29.8914 344° North  Level Estimated
Mon 12:41:00 PM 38.1734 29.8608 344° North  Level Estimated
Mon 12:42:00 PM 38.2595 29.8302 344° North  Level Estimated
Mon 12:43:00 PM 38.3455 29.7995 344° North  Level Estimated
Mon 12:44:00 PM 38.4316 29.7687 344° North  Level Estimated
Mon 12:45:00 PM 38.5176 29.7378 344° North  Level Estimated
Mon 12:46:00 PM 38.6036 29.7069 344° North  Level Estimated
Mon 12:47:00 PM 38.6897 29.6758 344° North  Level Estimated
Mon 12:48:00 PM 38.7757 29.6448 344° North  Level Estimated
Mon 12:49:00 PM 38.8616 29.6136 344° North  Level Estimated
Mon 12:50:00 PM 38.9476 29.5823 344° North  Level Estimated
Mon 12:51:00 PM 39.0336 29.5510 344° North  Level Estimated
Mon 12:52:00 PM 39.1196 29.5196 344° North  Level Estimated
Mon 12:53:00 PM 39.2056 29.4881 344° North  Level Estimated
Mon 12:54:00 PM 39.2915 29.4566 344° North  Level Estimated
Mon 12:55:00 PM 39.3775 29.4250 344° North  Level Estimated
Mon 12:56:00 PM 39.4634 29.3933 344° North  Level Estimated
Mon 12:57:00 PM 39.5494 29.3615 344° North  Level Estimated
Mon 12:58:00 PM 39.6353 29.3296 344° North  Level Estimated
Mon 12:59:00 PM 39.7212 29.2977 344° North  Level Estimated
Mon 01:00:00 PM 39.8071 29.2657 344° North  Level Estimated
Mon 01:01:00 PM 39.8930 29.2336 344° North  Level Estimated
Mon 01:02:00 PM 39.9789 29.2014 344° North  Level Estimated
Mon 01:03:00 PM 40.0648 29.1691 344° North  Level Estimated
Mon 01:04:00 PM 40.1506 29.1368 344° North  Level Estimated
Mon 01:05:00 PM 40.2365 29.1043 344° North  Level Estimated
Mon 01:06:00 PM 40.3223 29.0718 344° North  Level Estimated
Mon 01:07:00 PM 40.4082 29.0392 344° North  Level Estimated
Mon 01:08:00 PM 40.4940 29.0066 344° North  Level Estimated
Mon 01:09:00 PM 40.5798 28.9738 344° North  Level Estimated
Mon 01:10:00 PM 40.6656 28.9410 344° North  Level Estimated
Mon 01:11:00 PM 40.7515 28.9080 344° North  Level Estimated
Mon 01:12:00 PM 40.8372 28.8750 344° North  Level Estimated
Mon 01:13:00 PM 40.9230 28.8419 344° North  Level Estimated
Mon 01:14:00 PM 40.9769 28.8211 344° North  Level Estimated
Mon 01:15:00 PM 40.9769 28.8211 North  Level Estimated
Mon 01:16:00 PM 40.9769 28.8211 North  Level Estimated
Mon 01:17:00 PM 40.9769 28.8211 North  Level Estimated
Mon 01:18:00 PM 40.9769 28.8211 North  Level Estimated
Mon 01:19:00 PM 40.9769 28.8211 North  Level Estimated
Mon 01:20:00 PM 40.9769 28.8211 North  Level Estimated
Mon 01:21:00 PM 40.9769 28.8211 North  Level Estimated
Mon 01:22:00 PM 40.9769 28.8211 North  Level Estimated
Mon 01:23:00 PM 40.9769 28.8211 North  Level Estimated
Mon 01:24:00 PM 40.9769 28.8211 North  Level Estimated
Mon 01:25:00 PM 40.9769 28.8211 North  Level Estimated
Mon 01:26:00 PM 40.9769 28.8211 North  Level Estimated
Mon 01:27:00 PM 40.9769 28.8211 North  Level Estimated
Mon 01:28:00 PM 40.9769 28.8211 North  Level Estimated
Mon 01:29:00 PM 40.9769 28.8211 North  Level Estimated
Mon 01:30:00 PM 40.9769 28.8211 North  Level Estimated
Mon 01:31:00 PM 40.9769 28.8211 North  Level Estimated
Mon 01:32:00 PM 40.9769 28.8211 North  Level Estimated
Mon 01:33:00 PM 40.9769 28.8211 North  Level Estimated
Mon 01:34:00 PM 40.9769 28.8211 North  Level Estimated
Mon 01:35:00 PM 40.9769 28.8211 North  Level Estimated
Mon 01:36:00 PM 40.9769 28.8211 North  Level Estimated
Mon 01:37:00 PM 40.9769 28.8211 North  Level Estimated
Mon 01:38:00 PM 40.9769 28.8211 North  Level Estimated
Mon 01:39:00 PM 40.9769 28.8211 North  Level Estimated
Mon 01:40:00 PM 40.9769 28.8211 North  Level Estimated
Mon 01:41:00 PM 40.9769 28.8211 North  Level Estimated
Mon 01:42:00 PM 40.9769 28.8211 North  Level Estimated

Login

Don't have an account? Register now (free) for customized features, flight alerts, and more!